sensor_id;sensor_type;location;lat;lon;timestamp;pressure;altitude;pressure_sealevel;temperature;humidity
44001;BME280;29660;42.892;24.710;2024-03-17T00:03:43;97301.31;;;7.90;100.00
44001;BME280;29660;42.892;24.710;2024-03-17T00:09:05;97303.16;;;7.90;100.00
44001;BME280;29660;42.892;24.710;2024-03-17T00:14:27;97292.81;;;7.93;100.00
44001;BME280;29660;42.892;24.710;2024-03-17T00:19:49;97308.22;;;7.91;100.00
44001;BME280;29660;42.892;24.710;2024-03-17T00:25:10;97292.25;;;7.81;100.00
44001;BME280;29660;42.892;24.710;2024-03-17T00:30:31;97233.97;;;7.33;100.00
44001;BME280;29660;42.892;24.710;2024-03-17T00:35:52;97285.84;;;7.67;100.00
44001;BME280;29660;42.892;24.710;2024-03-17T00:41:13;97290.56;;;7.54;100.00
44001;BME280;29660;42.892;24.710;2024-03-17T00:46:34;97243.41;;;7.09;100.00
44001;BME280;29660;42.892;24.710;2024-03-17T00:51:55;97296.56;;;7.29;100.00
44001;BME280;29660;42.892;24.710;2024-03-17T00:57:17;97293.38;;;7.27;100.00
44001;BME280;29660;42.892;24.710;2024-03-17T01:02:38;97285.41;;;7.27;100.00
44001;BME280;29660;42.892;24.710;2024-03-17T01:08:00;97291.44;;;7.18;100.00
44001;BME280;29660;42.892;24.710;2024-03-17T01:13:21;97251.75;;;6.85;100.00
44001;BME280;29660;42.892;24.710;2024-03-17T01:18:43;97294.56;;;7.04;100.00
44001;BME280;29660;42.892;24.710;2024-03-17T01:24:06;97298.22;;;6.98;100.00
44001;BME280;29660;42.892;24.710;2024-03-17T01:29:27;97305.91;;;6.95;100.00
44001;BME280;29660;42.892;24.710;2024-03-17T01:34:48;97295.06;;;6.96;100.00
44001;BME280;29660;42.892;24.710;2024-03-17T01:40:10;97296.84;;;6.91;100.00
44001;BME280;29660;42.892;24.710;2024-03-17T01:45:32;97310.81;;;6.76;100.00
44001;BME280;29660;42.892;24.710;2024-03-17T01:50:55;97299.66;;;6.74;100.00
44001;BME280;29660;42.892;24.710;2024-03-17T01:56:17;96591.38;;;2.10;100.00
44001;BME280;29660;42.892;24.710;2024-03-17T02:01:39;97304.69;;;6.70;100.00
44001;BME280;29660;42.892;24.710;2024-03-17T02:07:01;97173.06;;;5.79;100.00
44001;BME280;29660;42.892;24.710;2024-03-17T02:12:23;97299.53;;;6.53;100.00
44001;BME280;29660;42.892;24.710;2024-03-17T02:17:45;97172.19;;;5.69;100.00
44001;BME280;29660;42.892;24.710;2024-03-17T02:23:06;97276.81;;;6.30;100.00
44001;BME280;29660;42.892;24.710;2024-03-17T02:28:27;97303.75;;;6.54;100.00
44001;BME280;29660;42.892;24.710;2024-03-17T02:33:48;97300.91;;;6.61;100.00
44001;BME280;29660;42.892;24.710;2024-03-17T02:39:09;97298.56;;;6.64;100.00
44001;BME280;29660;42.892;24.710;2024-03-17T02:44:49;97291.34;;;6.60;100.00
44001;BME280;29660;42.892;24.710;2024-03-17T02:50:10;97167.31;;;5.87;100.00
44001;BME280;29660;42.892;24.710;2024-03-17T02:55:31;97312.25;;;6.94;100.00
44001;BME280;29660;42.892;24.710;2024-03-17T03:00:52;97296.34;;;6.88;100.00
44001;BME280;29660;42.892;24.710;2024-03-17T03:06:15;97211.22;;;6.48;100.00
44001;BME280;29660;42.892;24.710;2024-03-17T03:11:39;96950.88;;;4.83;100.00
44001;BME280;29660;42.892;24.710;2024-03-17T03:17:00;97208.56;;;6.43;100.00
44001;BME280;29660;42.892;24.710;2024-03-17T03:22:22;97294.19;;;6.85;100.00
44001;BME280;29660;42.892;24.710;2024-03-17T03:27:43;97155.94;;;6.19;100.00
44001;BME280;29660;42.892;24.710;2024-03-17T03:33:04;97296.19;;;7.10;100.00
44001;BME280;29660;42.892;24.710;2024-03-17T03:38:26;97293.53;;;7.10;100.00
44001;BME280;29660;42.892;24.710;2024-03-17T03:43:47;97307.56;;;7.06;100.00
44001;BME280;29660;42.892;24.710;2024-03-17T03:49:08;97234.66;;;6.61;100.00
44001;BME280;29660;42.892;24.710;2024-03-17T03:54:29;97152.47;;;6.13;100.00
44001;BME280;29660;42.892;24.710;2024-03-17T03:59:50;97305.22;;;7.14;100.00
44001;BME280;29660;42.892;24.710;2024-03-17T04:05:11;97320.41;;;7.24;100.00
44001;BME280;29660;42.892;24.710;2024-03-17T04:10:33;97306.34;;;7.24;100.00
44001;BME280;29660;42.892;24.710;2024-03-17T04:15:54;97303.69;;;7.24;100.00
44001;BME280;29660;42.892;24.710;2024-03-17T04:21:17;97179.69;;;6.41;100.00
44001;BME280;29660;42.892;24.710;2024-03-17T04:26:38;97309.31;;;7.37;100.00
44001;BME280;29660;42.892;24.710;2024-03-17T04:31:59;97316.22;;;7.33;100.00
44001;BME280;29660;42.892;24.710;2024-03-17T04:37:21;97326.00;;;7.28;100.00
44001;BME280;29660;42.892;24.710;2024-03-17T04:42:43;97333.88;;;7.18;100.00
44001;BME280;29660;42.892;24.710;2024-03-17T04:48:04;97333.50;;;6.99;100.00
44001;BME280;29660;42.892;24.710;2024-03-17T04:53:27;97334.66;;;7.13;100.00
44001;BME280;29660;42.892;24.710;2024-03-17T04:58:48;97336.25;;;7.14;100.00
44001;BME280;29660;42.892;24.710;2024-03-17T05:04:09;97296.84;;;6.85;100.00
44001;BME280;29660;42.892;24.710;2024-03-17T05:09:31;97327.00;;;7.17;100.00
44001;BME280;29660;42.892;24.710;2024-03-17T05:14:52;97302.66;;;6.87;100.00
44001;BME280;29660;42.892;24.710;2024-03-17T05:20:13;97353.50;;;7.11;100.00
44001;BME280;29660;42.892;24.710;2024-03-17T05:25:34;97233.19;;;6.43;100.00
44001;BME280;29660;42.892;24.710;2024-03-17T05:30:58;97359.44;;;7.29;100.00
44001;BME280;29660;42.892;24.710;2024-03-17T05:36:19;97358.41;;;7.35;100.00
44001;BME280;29660;42.892;24.710;2024-03-17T05:41:43;97331.78;;;7.20;100.00
44001;BME280;29660;42.892;24.710;2024-03-17T05:47:04;97362.97;;;7.45;100.00
44001;BME280;29660;42.892;24.710;2024-03-17T05:52:29;97359.81;;;7.48;100.00
44001;BME280;29660;42.892;24.710;2024-03-17T05:57:50;97367.59;;;7.70;100.00
44001;BME280;29660;42.892;24.710;2024-03-17T06:03:11;97237.47;;;6.92;100.00
44001;BME280;29660;42.892;24.710;2024-03-17T06:08:32;97379.34;;;7.79;100.00
44001;BME280;29660;42.892;24.710;2024-03-17T06:13:53;97377.78;;;7.88;100.00
44001;BME280;29660;42.892;24.710;2024-03-17T06:19:14;97375.59;;;7.75;100.00
44001;BME280;29660;42.892;24.710;2024-03-17T06:24:35;97379.41;;;7.94;100.00
44001;BME280;29660;42.892;24.710;2024-03-17T06:29:58;97389.25;;;7.99;100.00
44001;BME280;29660;42.892;24.710;2024-03-17T06:35:19;97387.16;;;8.16;100.00
44001;BME280;29660;42.892;24.710;2024-03-17T06:40:41;97268.81;;;7.57;100.00
44001;BME280;29660;42.892;24.710;2024-03-17T06:46:02;97344.41;;;8.18;100.00
44001;BME280;29660;42.892;24.710;2024-03-17T06:51:25;97389.19;;;8.82;100.00
44001;BME280;29660;42.892;24.710;2024-03-17T06:56:46;97392.66;;;9.08;100.00
44001;BME280;29660;42.892;24.710;2024-03-17T07:02:07;97398.72;;;9.34;100.00
44001;BME280;29660;42.892;24.710;2024-03-17T07:07:32;97391.19;;;9.67;100.00
44001;BME280;29660;42.892;24.710;2024-03-17T07:12:53;97266.53;;;9.04;100.00
44001;BME280;29660;42.892;24.710;2024-03-17T07:18:14;97398.78;;;10.09;100.00
44001;BME280;29660;42.892;24.710;2024-03-17T07:23:36;97204.19;;;9.25;100.00
44001;BME280;29660;42.892;24.710;2024-03-17T07:28:57;97392.84;;;10.72;100.00
44001;BME280;29660;42.892;24.710;2024-03-17T07:34:18;97380.19;;;11.22;100.00
44001;BME280;29660;42.892;24.710;2024-03-17T07:39:39;97370.41;;;11.65;100.00
44001;BME280;29660;42.892;24.710;2024-03-17T07:45:00;97372.75;;;11.72;94.05
44001;BME280;29660;42.892;24.710;2024-03-17T07:50:21;97361.50;;;12.18;94.90
44001;BME280;29660;42.892;24.710;2024-03-17T07:55:42;97357.53;;;12.53;87.56
44001;BME280;29660;42.892;24.710;2024-03-17T08:01:08;97298.91;;;12.57;81.83
44001;BME280;29660;42.892;24.710;2024-03-17T08:06:30;97337.00;;;13.33;83.70
44001;BME280;29660;42.892;24.710;2024-03-17T08:11:52;97329.56;;;13.43;72.06
44001;BME280;29660;42.892;24.710;2024-03-17T08:17:13;97313.19;;;13.86;71.96
44001;BME280;29660;42.892;24.710;2024-03-17T08:22:34;97326.00;;;14.25;69.52
44001;BME280;29660;42.892;24.710;2024-03-17T08:27:55;97316.19;;;14.21;67.78
44001;BME280;29660;42.892;24.710;2024-03-17T08:33:17;97310.59;;;13.81;65.12
44001;BME280;29660;42.892;24.710;2024-03-17T08:38:38;97321.31;;;13.40;67.23
44001;BME280;29660;42.892;24.710;2024-03-17T08:43:59;97301.38;;;13.32;65.84
44001;BME280;29660;42.892;24.710;2024-03-17T08:49:21;97236.19;;;13.50;61.75
44001;BME280;29660;42.892;24.710;2024-03-17T08:54:46;97192.59;;;13.59;58.57
44001;BME280;29660;42.892;24.710;2024-03-17T09:00:08;97293.44;;;14.77;57.62
44001;BME280;29660;42.892;24.710;2024-03-17T09:05:32;97203.06;;;14.19;55.77
44001;BME280;29660;42.892;24.710;2024-03-17T09:10:54;97274.13;;;14.66;53.80
44001;BME280;29660;42.892;24.710;2024-03-17T09:16:16;97170.22;;;14.44;56.61
44001;BME280;29660;42.892;24.710;2024-03-17T09:21:39;97285.78;;;14.93;56.63
44001;BME280;29660;42.892;24.710;2024-03-17T09:27:00;97283.56;;;14.64;54.74
44001;BME280;29660;42.892;24.710;2024-03-17T09:32:22;97161.94;;;13.65;51.97
44001;BME280;29660;42.892;24.710;2024-03-17T09:37:43;97277.56;;;14.44;53.74
44001;BME280;29660;42.892;24.710;2024-03-17T09:43:04;97260.84;;;14.47;52.15
44001;BME280;29660;42.892;24.710;2024-03-17T09:48:26;97223.38;;;14.56;51.08
44001;BME280;29660;42.892;24.710;2024-03-17T09:53:49;97243.63;;;14.62;51.66
44001;BME280;29660;42.892;24.710;2024-03-17T09:59:10;97249.50;;;14.95;50.45
44001;BME280;29660;42.892;24.710;2024-03-17T10:04:32;97261.59;;;14.84;50.10
44001;BME280;29660;42.892;24.710;2024-03-17T10:10:10;97260.63;;;14.80;46.97
44001;BME280;29660;42.892;24.710;2024-03-17T10:15:33;97246.00;;;15.26;46.10
44001;BME280;29660;42.892;24.710;2024-03-17T10:20:54;97249.56;;;15.53;43.32
44001;BME280;29660;42.892;24.710;2024-03-17T10:26:19;97176.38;;;15.07;43.10
44001;BME280;29660;42.892;24.710;2024-03-17T10:31:42;97243.09;;;15.62;40.16
44001;BME280;29660;42.892;24.710;2024-03-17T10:37:18;97247.19;;;15.60;39.01
44001;BME280;29660;42.892;24.710;2024-03-17T10:42:48;96849.06;;;12.86;41.85
44001;BME280;29660;42.892;24.710;2024-03-17T10:48:15;97241.56;;;15.79;43.28
44001;BME280;29660;42.892;24.710;2024-03-17T10:53:40;97229.69;;;15.71;42.65
44001;BME280;29660;42.892;24.710;2024-03-17T10:59:03;97223.56;;;15.97;41.44
44001;BME280;29660;42.892;24.710;2024-03-17T11:04:25;97216.91;;;16.03;40.39
44001;BME280;29660;42.892;24.710;2024-03-17T11:09:47;97199.97;;;15.76;40.28
44001;BME280;29660;42.892;24.710;2024-03-17T11:21:03;97191.56;;;15.95;41.69
44001;BME280;29660;42.892;24.710;2024-03-17T11:26:36;97211.81;;;15.66;42.67
44001;BME280;29660;42.892;24.710;2024-03-17T11:31:57;97200.91;;;15.14;43.21
44001;BME280;29660;42.892;24.710;2024-03-17T11:37:41;97218.16;;;15.22;43.61
44001;BME280;29660;42.892;24.710;2024-03-17T11:43:03;97125.69;;;14.66;43.62
44001;BME280;29660;42.892;24.710;2024-03-17T11:48:26;97138.41;;;14.83;42.59
44001;BME280;29660;42.892;24.710;2024-03-17T11:53:58;97115.53;;;14.94;42.72
44001;BME280;29660;42.892;24.710;2024-03-17T11:59:20;97192.09;;;15.31;43.04
44001;BME280;29660;42.892;24.710;2024-03-17T12:04:42;97093.25;;;14.93;43.10
44001;BME280;29660;42.892;24.710;2024-03-17T12:10:03;97188.25;;;16.07;41.94
44001;BME280;29660;42.892;24.710;2024-03-17T12:15:27;97132.88;;;15.54;42.38
44001;BME280;29660;42.892;24.710;2024-03-17T12:20:48;97186.00;;;15.57;43.40
44001;BME280;29660;42.892;24.710;2024-03-17T12:26:15;96974.72;;;14.12;42.97
44001;BME280;29660;42.892;24.710;2024-03-17T12:31:37;97174.91;;;15.50;42.82
44001;BME280;29660;42.892;24.710;2024-03-17T12:36:59;97174.34;;;15.70;42.93
44001;BME280;29660;42.892;24.710;2024-03-17T12:42:24;97155.06;;;15.11;42.80
44001;BME280;29660;42.892;24.710;2024-03-17T12:47:48;97174.75;;;15.37;43.17
44001;BME280;29660;42.892;24.710;2024-03-17T12:53:15;96916.41;;;13.86;43.27
44001;BME280;29660;42.892;24.710;2024-03-17T12:58:38;97165.28;;;15.49;43.50
44001;BME280;29660;42.892;24.710;2024-03-17T13:04:17;97166.63;;;15.29;43.96
44001;BME280;29660;42.892;24.710;2024-03-17T13:09:39;97152.72;;;15.27;43.15
44001;BME280;29660;42.892;24.710;2024-03-17T13:15:01;97038.16;;;14.16;43.95
44001;BME280;29660;42.892;24.710;2024-03-17T13:20:22;97083.47;;;14.49;43.39
44001;BME280;29660;42.892;24.710;2024-03-17T13:25:43;97132.09;;;14.87;43.33
44001;BME280;29660;42.892;24.710;2024-03-17T13:31:07;97130.16;;;14.79;43.47
44001;BME280;29660;42.892;24.710;2024-03-17T13:36:30;97166.97;;;15.27;43.92
44001;BME280;29660;42.892;24.710;2024-03-17T13:41:52;97161.47;;;15.50;44.49
44001;BME280;29660;42.892;24.710;2024-03-17T13:47:14;97160.63;;;15.23;44.25
44001;BME280;29660;42.892;24.710;2024-03-17T13:52:39;97153.97;;;15.12;44.58
44001;BME280;29660;42.892;24.710;2024-03-17T13:58:04;97155.84;;;15.03;45.92
44001;BME280;29660;42.892;24.710;2024-03-17T14:03:25;97157.78;;;15.19;46.75
44001;BME280;29660;42.892;24.710;2024-03-17T14:08:46;97145.53;;;14.96;46.42
44001;BME280;29660;42.892;24.710;2024-03-17T14:14:07;97155.75;;;14.85;47.76
44001;BME280;29660;42.892;24.710;2024-03-17T14:19:28;97155.75;;;14.85;48.65
44001;BME280;29660;42.892;24.710;2024-03-17T14:24:50;97153.38;;;14.75;49.73
44001;BME280;29660;42.892;24.710;2024-03-17T14:30:16;97137.41;;;14.70;50.09
44001;BME280;29660;42.892;24.710;2024-03-17T14:35:37;97149.09;;;14.74;49.77
44001;BME280;29660;42.892;24.710;2024-03-17T14:40:59;97149.06;;;14.43;50.75
44001;BME280;29660;42.892;24.710;2024-03-17T14:46:20;97119.84;;;14.41;50.72
44001;BME280;29660;42.892;24.710;2024-03-17T14:51:41;97147.19;;;14.66;51.28
44001;BME280;29660;42.892;24.710;2024-03-17T14:57:03;97171.22;;;14.26;50.55
44001;BME280;29660;42.892;24.710;2024-03-17T15:02:24;97156.41;;;14.06;51.66
44001;BME280;29660;42.892;24.710;2024-03-17T15:07:47;97144.69;;;14.24;52.43
44001;BME280;29660;42.892;24.710;2024-03-17T15:13:09;97149.53;;;14.14;52.90
44001;BME280;29660;42.892;24.710;2024-03-17T15:18:31;97033.66;;;13.49;53.65
44001;BME280;29660;42.892;24.710;2024-03-17T15:23:52;97151.28;;;14.18;55.60
44001;BME280;29660;42.892;24.710;2024-03-17T15:29:14;97039.75;;;13.41;56.85
44001;BME280;29660;42.892;24.710;2024-03-17T15:34:36;97154.03;;;14.05;55.92
44001;BME280;29660;42.892;24.710;2024-03-17T15:39:58;97160.00;;;14.02;57.10
44001;BME280;29660;42.892;24.710;2024-03-17T15:45:20;97167.03;;;13.75;58.49
44001;BME280;29660;42.892;24.710;2024-03-17T15:50:41;97162.53;;;13.62;58.19
44001;BME280;29660;42.892;24.710;2024-03-17T15:56:04;97162.75;;;13.51;58.36
44001;BME280;29660;42.892;24.710;2024-03-17T16:01:27;97166.53;;;13.50;58.06
44001;BME280;29660;42.892;24.710;2024-03-17T16:06:48;97167.28;;;13.65;57.40
44001;BME280;29660;42.892;24.710;2024-03-17T16:12:09;97182.06;;;13.62;55.74
44001;BME280;29660;42.892;24.710;2024-03-17T16:17:31;97168.47;;;13.59;52.74
44001;BME280;29660;42.892;24.710;2024-03-17T16:22:52;97173.84;;;13.59;51.21
44001;BME280;29660;42.892;24.710;2024-03-17T16:28:20;97105.06;;;13.04;50.02
44001;BME280;29660;42.892;24.710;2024-03-17T16:33:42;97186.38;;;13.49;50.72
44001;BME280;29660;42.892;24.710;2024-03-17T16:39:03;97181.63;;;13.46;51.30
44001;BME280;29660;42.892;24.710;2024-03-17T16:44:49;97187.56;;;13.43;51.74
44001;BME280;29660;42.892;24.710;2024-03-17T16:50:14;97068.00;;;12.84;51.96
44001;BME280;29660;42.892;24.710;2024-03-17T16:55:36;97181.63;;;13.46;51.73
44001;BME280;29660;42.892;24.710;2024-03-17T17:00:57;97186.44;;;13.58;52.09
44001;BME280;29660;42.892;24.710;2024-03-17T17:06:18;97185.47;;;13.68;52.40
44001;BME280;29660;42.892;24.710;2024-03-17T17:11:40;97063.25;;;12.94;52.78
44001;BME280;29660;42.892;24.710;2024-03-17T17:17:04;97185.81;;;13.75;53.82
44001;BME280;29660;42.892;24.710;2024-03-17T17:22:26;97174.63;;;13.73;53.88
44001;BME280;29660;42.892;24.710;2024-03-17T17:27:47;97163.72;;;13.56;54.78
44001;BME280;29660;42.892;24.710;2024-03-17T17:33:08;97191.75;;;13.49;55.09
44001;BME280;29660;42.892;24.710;2024-03-17T17:38:29;97191.94;;;13.39;56.89
44001;BME280;29660;42.892;24.710;2024-03-17T17:43:52;97213.16;;;13.36;58.76
44001;BME280;29660;42.892;24.710;2024-03-17T17:49:13;97205.56;;;13.29;62.05
44001;BME280;29660;42.892;24.710;2024-03-17T17:54:34;97213.56;;;13.15;62.36
44001;BME280;29660;42.892;24.710;2024-03-17T17:59:55;97217.50;;;12.90;62.19
44001;BME280;29660;42.892;24.710;2024-03-17T18:05:16;97188.16;;;12.71;62.53
44001;BME280;29660;42.892;24.710;2024-03-17T18:10:38;97209.84;;;12.70;67.96
44001;BME280;29660;42.892;24.710;2024-03-17T18:16:01;97219.56;;;12.80;70.24
44001;BME280;29660;42.892;24.710;2024-03-17T18:21:22;97201.56;;;12.85;71.37
44001;BME280;29660;42.892;24.710;2024-03-17T18:26:44;97137.75;;;12.32;72.93
44001;BME280;29660;42.892;24.710;2024-03-17T18:32:06;97210.25;;;12.77;74.95
44001;BME280;29660;42.892;24.710;2024-03-17T18:37:28;97168.47;;;12.48;75.02
44001;BME280;29660;42.892;24.710;2024-03-17T18:42:49;97194.84;;;12.55;76.90
44001;BME280;29660;42.892;24.710;2024-03-17T18:48:10;97224.97;;;12.61;77.60
44001;BME280;29660;42.892;24.710;2024-03-17T18:53:32;97228.91;;;12.49;78.31
44001;BME280;29660;42.892;24.710;2024-03-17T18:58:53;97223.31;;;12.32;80.54
44001;BME280;29660;42.892;24.710;2024-03-17T19:04:15;97068.28;;;11.29;82.03
44001;BME280;29660;42.892;24.710;2024-03-17T19:09:36;96826.72;;;9.62;83.06
44001;BME280;29660;42.892;24.710;2024-03-17T19:14:58;97076.63;;;11.03;84.30
44001;BME280;29660;42.892;24.710;2024-03-17T19:20:19;97221.69;;;11.79;86.19
44001;BME280;29660;42.892;24.710;2024-03-17T19:25:41;97223.69;;;11.69;87.73
44001;BME280;29660;42.892;24.710;2024-03-17T19:31:04;97220.50;;;11.48;90.22
44001;BME280;29660;42.892;24.710;2024-03-17T19:36:26;96791.56;;;8.58;91.35
44001;BME280;29660;42.892;24.710;2024-03-17T19:41:47;97231.81;;;11.40;92.65
44001;BME280;29660;42.892;24.710;2024-03-17T19:47:09;97240.72;;;11.30;94.14
44001;BME280;29660;42.892;24.710;2024-03-17T19:52:30;97147.97;;;10.74;92.60
44001;BME280;29660;42.892;24.710;2024-03-17T19:57:51;97229.59;;;11.23;93.53
44001;BME280;29660;42.892;24.710;2024-03-17T20:03:13;97131.56;;;10.62;93.09
44001;BME280;29660;42.892;24.710;2024-03-17T20:08:36;97173.94;;;10.87;95.18
44001;BME280;29660;42.892;24.710;2024-03-17T20:13:57;97226.19;;;11.17;95.81
44001;BME280;29660;42.892;24.710;2024-03-17T20:19:18;97224.09;;;11.14;96.44
44001;BME280;29660;42.892;24.710;2024-03-17T20:24:41;97219.63;;;11.10;96.59
44001;BME280;29660;42.892;24.710;2024-03-17T20:30:05;97070.91;;;9.90;98.41
44001;BME280;29660;42.892;24.710;2024-03-17T20:35:28;97223.63;;;10.83;98.65
44001;BME280;29660;42.892;24.710;2024-03-17T20:40:49;97226.13;;;10.74;100.00
44001;BME280;29660;42.892;24.710;2024-03-17T20:46:11;97123.63;;;9.93;100.00
44001;BME280;29660;42.892;24.710;2024-03-17T20:51:36;97067.25;;;9.52;100.00
44001;BME280;29660;42.892;24.710;2024-03-17T20:56:57;97226.13;;;10.45;100.00
44001;BME280;29660;42.892;24.710;2024-03-17T21:02:19;96820.50;;;7.71;100.00
44001;BME280;29660;42.892;24.710;2024-03-17T21:07:40;97235.38;;;10.14;100.00
44001;BME280;29660;42.892;24.710;2024-03-17T21:13:02;97230.09;;;10.08;100.00
44001;BME280;29660;42.892;24.710;2024-03-17T21:18:25;97231.72;;;10.04;100.00
44001;BME280;29660;42.892;24.710;2024-03-17T21:23:46;97213.25;;;9.79;100.00
44001;BME280;29660;42.892;24.710;2024-03-17T21:29:08;97178.84;;;9.43;100.00
44001;BME280;29660;42.892;24.710;2024-03-17T21:34:29;97227.19;;;9.61;100.00
44001;BME280;29660;42.892;24.710;2024-03-17T21:39:50;97188.19;;;9.36;100.00
44001;BME280;29660;42.892;24.710;2024-03-17T21:45:11;97210.28;;;9.36;100.00
44001;BME280;29660;42.892;24.710;2024-03-17T21:50:35;97199.16;;;9.19;100.00
44001;BME280;29660;42.892;24.710;2024-03-17T21:56:01;97093.56;;;8.44;100.00
44001;BME280;29660;42.892;24.710;2024-03-17T22:01:22;97208.75;;;9.15;100.00
44001;BME280;29660;42.892;24.710;2024-03-17T22:06:43;97209.84;;;9.03;100.00
44001;BME280;29660;42.892;24.710;2024-03-17T22:12:04;97205.91;;;9.01;100.00
44001;BME280;29660;42.892;24.710;2024-03-17T22:17:26;97202.47;;;8.90;100.00
44001;BME280;29660;42.892;24.710;2024-03-17T22:22:49;97203.56;;;8.79;100.00
44001;BME280;29660;42.892;24.710;2024-03-17T22:28:10;96859.94;;;6.52;100.00
44001;BME280;29660;42.892;24.710;2024-03-17T22:33:34;97158.44;;;8.38;100.00
44001;BME280;29660;42.892;24.710;2024-03-17T22:38:56;97172.75;;;8.32;100.00
44001;BME280;29660;42.892;24.710;2024-03-17T22:44:17;97067.09;;;7.52;100.00
44001;BME280;29660;42.892;24.710;2024-03-17T22:49:38;97207.31;;;8.22;100.00
44001;BME280;29660;42.892;24.710;2024-03-17T22:54:59;97187.66;;;8.07;100.00
44001;BME280;29660;42.892;24.710;2024-03-17T23:00:21;97190.84;;;7.94;100.00
44001;BME280;29660;42.892;24.710;2024-03-17T23:06:02;97187.91;;;7.96;100.00
44001;BME280;29660;42.892;24.710;2024-03-17T23:11:24;97199.06;;;7.93;100.00
44001;BME280;29660;42.892;24.710;2024-03-17T23:16:45;97183.38;;;7.81;100.00
44001;BME280;29660;42.892;24.710;2024-03-17T23:22:06;96887.88;;;5.39;100.00
44001;BME280;29660;42.892;24.710;2024-03-17T23:27:28;97075.44;;;6.78;100.00
44001;BME280;29660;42.892;24.710;2024-03-17T23:32:49;97178.00;;;7.45;100.00
44001;BME280;29660;42.892;24.710;2024-03-17T23:38:10;97045.72;;;6.60;100.00
44001;BME280;29660;42.892;24.710;2024-03-17T23:43:31;97153.28;;;7.19;100.00
44001;BME280;29660;42.892;24.710;2024-03-17T23:48:53;97153.00;;;7.16;100.00
44001;BME280;29660;42.892;24.710;2024-03-17T23:54:14;97142.34;;;7.05;100.00
44001;BME280;29660;42.892;24.710;2024-03-17T23:59:35;97158.53;;;7.09;100.00
